Time;durP1;ratioP1;P1;durP2;ratioP2;P2;SDS_P1;SDS_P2;PMS_P1;PMS_P2;Temp;Humidity;BMP_temperature;BMP_pressure;BME280_temperature;BME280_humidity;BME280_pressure;Samples;Min_cycle;Max_cycle;Signal;HPM_P1;HPM_P2
2022/04/26 03:38:05;;;;;;;15.60;13.73;;;;;;;7.43;100.00;99696.25;5077575;28;20206;-59
2022/04/26 03:40:30;;;;;;;15.67;13.37;;;;;;;7.33;100.00;99683.94;5071064;28;20223;-59
2022/04/26 03:42:56;;;;;;;15.63;13.93;;;;;;;7.15;100.00;99681.38;5104289;28;20183;-58
2022/04/26 03:45:21;;;;;;;16.00;13.20;;;;;;;6.94;100.00;99688.31;5092287;28;20673;-58
2022/04/26 03:47:46;;;;;;;15.67;13.73;;;;;;;7.03;100.00;99687.06;5072259;28;20177;-58
2022/04/26 03:50:12;;;;;;;14.93;13.43;;;;;;;7.02;100.00;99681.13;5062688;28;20285;-58
2022/04/26 03:52:40;;;;;;;14.70;13.10;;;;;;;6.94;100.00;99681.44;5056536;28;20277;-57
2022/04/26 03:55:06;;;;;;;16.43;14.57;;;;;;;6.86;100.00;99683.56;5072313;28;20223;-58
2022/04/26 03:57:32;;;;;;;15.80;14.20;;;;;;;6.95;100.00;99689.97;5088848;28;20179;-58
2022/04/26 03:59:57;;;;;;;16.50;14.47;;;;;;;6.98;100.00;99701.78;5093097;28;20237;-58
2022/04/26 04:02:23;;;;;;;16.20;14.50;;;;;;;6.87;100.00;99699.72;5081408;28;20643;-56
2022/04/26 04:04:49;;;;;;;17.27;15.03;;;;;;;6.92;100.00;99700.31;5092826;28;20169;-57
2022/04/26 04:07:14;;;;;;;17.47;15.63;;;;;;;6.88;100.00;99704.75;5108024;28;20198;-57
2022/04/26 04:09:40;;;;;;;17.00;14.50;;;;;;;6.83;100.00;99708.44;5091216;28;20230;-57
2022/04/26 04:12:05;;;;;;;16.03;14.33;;;;;;;6.82;100.00;99706.75;5084491;28;20712;-58
2022/04/26 04:14:31;;;;;;;16.43;14.67;;;;;;;6.82;100.00;99710.13;5087104;28;20176;-57
2022/04/26 04:16:57;;;;;;;17.27;15.47;;;;;;;6.76;100.00;99718.09;5092249;28;20551;-58
2022/04/26 04:19:23;;;;;;;17.40;15.37;;;;;;;6.73;100.00;99724.16;5092992;28;20202;-58
2022/04/26 04:21:50;;;;;;;16.37;14.67;;;;;;;6.91;100.00;99730.19;5081645;28;20255;-56
2022/04/26 04:24:15;;;;;;;17.40;15.57;;;;;;;7.02;100.00;99732.28;5089781;28;20673;-58
2022/04/26 04:26:41;;;;;;;17.23;15.27;;;;;;;7.14;100.00;99735.16;5092204;28;20182;-58
2022/04/26 04:29:07;;;;;;;17.93;15.30;;;;;;;7.22;100.00;99738.19;5092632;28;20178;-57
2022/04/26 04:31:33;;;;;;;17.23;15.40;;;;;;;7.31;100.00;99736.94;5088136;28;20319;-57
2022/04/26 04:34:00;;;;;;;17.80;15.10;;;;;;;7.38;100.00;99736.56;5091882;28;20175;-58
2022/04/26 04:36:27;;;;;;;18.17;16.23;;;;;;;7.50;100.00;99747.13;5087550;28;20249;-57
2022/04/26 04:38:52;;;;;;;18.03;16.13;;;;;;;7.38;100.00;99757.03;5102096;28;20224;-57
2022/04/26 04:41:18;;;;;;;18.60;14.90;;;;;;;7.41;100.00;99749.22;5087065;28;20741;-58
2022/04/26 04:43:44;;;;;;;18.07;15.20;;;;;;;7.28;100.00;99748.13;5084568;28;20194;-56
2022/04/26 04:46:10;;;;;;;17.37;15.50;;;;;;;7.35;100.00;99751.25;5091502;28;20274;-57
2022/04/26 04:48:36;;;;;;;18.90;16.13;;;;;;;7.53;100.00;99747.81;5092008;28;20320;-57
2022/04/26 04:51:01;;;;;;;17.97;15.67;;;;;;;7.36;100.00;99735.00;5081390;28;20234;-57
2022/04/26 04:53:27;;;;;;;20.10;17.33;;;;;;;7.41;100.00;99735.59;5091347;28;20186;-58
2022/04/26 04:55:52;;;;;;;18.83;15.47;;;;;;;7.17;100.00;99735.84;5092342;28;20183;-57
2022/04/26 04:58:17;;;;;;;17.27;15.47;;;;;;;7.17;100.00;99737.56;5091680;28;20250;-57
2022/04/26 05:00:43;;;;;;;16.60;14.80;;;;;;;7.29;100.00;99744.66;5081437;28;20243;-57
2022/04/26 05:03:08;;;;;;;14.30;12.80;;;;;;;7.23;100.00;99750.06;5091439;28;20191;-57
2022/04/26 05:05:35;;;;;;;16.17;13.90;;;;;;;7.33;100.00;99750.47;5091670;28;20194;-57
2022/04/26 05:08:01;;;;;;;13.00;11.70;;;;;;;7.35;100.00;99756.34;5091629;28;20259;-57
2022/04/26 05:10:26;;;;;;;13.40;12.00;;;;;;;7.35;100.00;99754.63;5081419;28;20317;-58
2022/04/26 05:12:52;;;;;;;11.27;10.17;;;;;;;7.12;100.00;99750.59;5087535;28;20679;-57
2022/04/26 05:15:17;;;;;;;12.40;10.63;;;;;;;7.40;100.00;99750.09;5089322;28;20557;-57
2022/04/26 05:17:42;;;;;;;11.43;10.07;;;;;;;7.42;100.00;99747.50;5091522;28;20615;-58
2022/04/26 05:20:09;;;;;;;11.30;10.17;;;;;;;7.43;100.00;99757.66;5081700;28;20228;-58
2022/04/26 05:24:53;;;;;;;10.73;9.63;;;;;;;7.42;100.00;99750.06;5090661;28;20182;-58
2022/04/26 05:25:20;;;;;;;11.10;8.97;;;;;;;7.25;100.00;99753.41;5091997;28;20192;-58
2022/04/26 05:27:45;;;;;;;12.57;9.70;;;;;;;7.51;100.00;99752.16;5091233;28;20554;-57
2022/04/26 05:30:12;;;;;;;11.77;10.07;;;;;;;7.59;100.00;99757.75;5081387;28;20657;-59
2022/04/26 05:32:37;;;;;;;10.73;9.57;;;;;;;7.50;100.00;99759.94;5085905;28;20243;-57
2022/04/26 05:35:03;;;;;;;11.53;10.33;;;;;;;7.64;100.00;99759.25;5073040;28;20630;-57
2022/04/26 05:37:31;;;;;;;11.73;10.53;;;;;;;7.59;100.00;99762.03;5087333;28;20618;-57
2022/04/26 05:39:57;;;;;;;10.77;9.70;;;;;;;7.51;100.00;99770.09;5091160;28;20304;-58
2022/04/26 05:42:23;;;;;;;12.00;10.50;;;;;;;7.57;100.00;99766.41;5073620;28;20226;-57
2022/04/26 05:44:48;;;;;;;12.10;9.90;;;;;;;7.71;100.00;99776.00;5105517;28;20223;-57
2022/04/26 05:47:13;;;;;;;13.87;10.63;;;;;;;7.78;100.00;99771.41;5087367;28;20546;-57
2022/04/26 05:49:39;;;;;;;10.70;9.60;;;;;;;7.92;100.00;99776.69;5089158;28;20247;-57
2022/04/26 05:52:04;;;;;;;10.10;9.10;;;;;;;7.83;100.00;99770.28;5078429;28;20222;-57
2022/04/26 05:54:30;;;;;;;11.03;9.43;;;;;;;7.91;100.00;99772.47;5083236;28;20179;-59
2022/04/26 05:56:56;;;;;;;12.03;10.63;;;;;;;7.69;100.00;99772.66;5087377;28;20265;-59
2022/04/26 05:59:21;;;;;;;13.57;10.40;;;;;;;7.85;100.00;99777.88;5090837;28;20183;-59
2022/04/26 06:01:48;;;;;;;11.30;9.40;;;;;;;7.95;100.00;99775.72;5078862;28;20685;-59
2022/04/26 06:04:13;;;;;;;10.13;9.07;;;;;;;7.98;100.00;99776.38;5083165;28;20179;-57
2022/04/26 06:06:38;;;;;;;11.20;10.10;;;;;;;8.01;100.00;99775.41;5080875;28;20629;-57
2022/04/26 06:09:04;;;;;;;11.37;10.27;;;;;;;7.97;100.00;99779.84;5087668;28;20183;-57
2022/04/26 06:11:30;;;;;;;10.60;9.47;;;;;;;8.05;100.00;99779.47;5069560;28;20350;-57
2022/04/26 06:13:55;;;;;;;10.00;9.00;;;;;;;8.04;100.00;99778.66;5086484;28;20191;-57
2022/04/26 06:16:21;;;;;;;10.20;9.20;;;;;;;8.13;100.00;99785.06;5087127;28;20168;-57
2022/04/26 06:18:46;;;;;;;9.33;7.57;;;;;;;8.04;100.00;99780.41;5093878;28;20197;-58
2022/04/26 06:21:11;;;;;;;9.83;8.83;;;;;;;8.23;100.00;99788.81;5083314;28;20226;-58
2022/04/26 06:23:37;;;;;;;8.90;8.10;;;;;;;8.29;100.00;99792.00;5093210;28;20186;-58
2022/04/26 06:26:02;;;;;;;9.57;8.67;;;;;;;8.28;100.00;99783.47;5093415;28;20645;-57
2022/04/26 06:28:27;;;;;;;8.67;7.90;;;;;;;8.31;100.00;99780.75;5094495;28;20184;-59
2022/04/26 06:30:54;;;;;;;8.13;7.30;;;;;;;8.46;100.00;99784.31;5081585;28;20231;-57
2022/04/26 06:33:20;;;;;;;8.03;7.23;;;;;;;8.40;100.00;99779.47;5085190;28;20172;-57
2022/04/26 06:35:45;;;;;;;7.73;7.07;;;;;;;8.56;100.00;99782.09;5079523;28;20188;-62
2022/04/26 06:38:10;;;;;;;8.07;7.27;;;;;;;8.80;100.00;99782.56;5077144;28;20175;-62
2022/04/26 06:40:36;;;;;;;8.07;7.27;;;;;;;8.91;100.00;99782.00;5069234;28;20640;-57
2022/04/26 06:43:01;;;;;;;7.33;6.57;;;;;;;9.01;100.00;99790.88;5085454;28;20202;-58
2022/04/26 06:45:27;;;;;;;6.33;5.83;;;;;;;9.01;100.00;99787.47;5074025;28;20272;-58
2022/04/26 06:47:54;;;;;;;6.80;6.13;;;;;;;8.90;100.00;99787.22;5073236;28;20185;-58
2022/04/26 06:50:20;;;;;;;7.67;6.43;;;;;;;9.17;100.00;99785.75;5066965;28;20271;-58
2022/04/26 06:52:45;;;;;;;5.87;5.33;;;;;;;9.29;100.00;99786.00;5109240;28;20233;-58
2022/04/26 06:55:11;;;;;;;6.13;5.63;;;;;;;9.22;100.00;99782.94;5094044;28;20324;-58
2022/04/26 06:57:37;;;;;;;5.87;5.37;;;;;;;9.26;100.00;99784.41;5086876;28;20266;-58
2022/04/26 07:00:05;;;;;;;7.07;6.30;;;;;;;9.27;100.00;99777.56;5064826;28;20271;-59
2022/04/26 07:02:30;;;;;;;6.50;5.90;;;;;;;9.46;100.00;99785.06;5095841;28;20231;-59
2022/04/26 07:04:56;;;;;;;7.23;6.43;;;;;;;9.64;100.00;99783.25;5093202;28;20176;-57
2022/04/26 07:07:22;;;;;;;5.87;5.37;;;;;;;9.68;100.00;99779.59;5078249;28;20204;-57
2022/04/26 07:09:47;;;;;;;6.40;5.80;;;;;;;9.60;100.00;99790.28;5073084;28;20237;-58
2022/04/26 07:12:13;;;;;;;5.80;5.30;;;;;;;9.42;100.00;99792.13;5079082;28;20264;-57
2022/04/26 07:14:38;;;;;;;6.17;5.67;;;;;;;9.43;100.00;99793.78;5088869;28;20180;-58
2022/04/26 07:17:03;;;;;;;7.03;6.37;;;;;;;9.37;100.00;99794.91;5081869;28;20227;-58
2022/04/26 07:19:29;;;;;;;6.43;5.20;;;;;;;9.46;100.00;99798.72;5093331;28;20702;-57
2022/04/26 07:21:54;;;;;;;5.60;5.10;;;;;;;9.40;100.00;99799.06;5082541;28;20215;-57
2022/04/26 07:24:19;;;;;;;6.10;5.60;;;;;;;9.45;100.00;99798.81;5093397;28;20255;-58
2022/04/26 07:26:46;;;;;;;6.30;5.70;;;;;;;9.55;100.00;99800.00;5079204;28;20203;-58
2022/04/26 07:29:14;;;;;;;6.13;5.53;;;;;;;9.27;100.00;99800.66;5073397;28;20542;-58
2022/04/26 07:31:39;;;;;;;4.53;4.23;;;;;;;9.30;100.00;99801.31;5051659;28;20238;-56
2022/04/26 07:34:23;;;;;;;5.70;5.20;;;;;;;9.41;100.00;99811.00;5091982;28;20180;-57
2022/04/26 07:36:50;;;;;;;5.53;5.07;;;;;;;9.71;100.00;99815.34;5082775;28;20258;-58
2022/04/26 07:39:17;;;;;;;5.17;4.27;;;;;;;9.56;100.00;99811.88;5089010;28;20539;-58
2022/04/26 07:41:44;;;;;;;5.07;4.57;;;;;;;9.55;100.00;99817.13;5081647;28;20281;-57
2022/04/26 07:44:10;;;;;;;4.60;4.20;;;;;;;9.45;100.00;99812.50;5080631;28;20192;-58
2022/04/26 07:46:35;;;;;;;5.10;4.70;;;;;;;9.59;100.00;99821.16;5092957;28;20549;-56
2022/04/26 07:49:00;;;;;;;5.87;5.37;;;;;;;9.70;100.00;99821.44;5083151;28;20219;-56
2022/04/26 07:51:26;;;;;;;5.83;5.33;;;;;;;9.53;100.00;99817.22;5073448;28;20228;-61
2022/04/26 07:53:51;;;;;;;5.27;4.77;;;;;;;9.56;100.00;99824.72;5081539;28;20176;-58
2022/04/26 07:56:16;;;;;;;6.23;5.63;;;;;;;9.65;100.00;99819.09;5092765;28;20314;-58
2022/04/26 07:58:42;;;;;;;5.70;5.20;;;;;;;9.68;100.00;99823.25;5091573;28;20707;-58
2022/04/26 08:01:07;;;;;;;6.30;5.70;;;;;;;9.70;100.00;99818.84;5082334;28;20224;-57
2022/04/26 08:03:33;;;;;;;7.03;5.40;;;;;;;9.48;100.00;99827.72;5091842;28;20210;-57
2022/04/26 08:05:59;;;;;;;6.33;5.73;;;;;;;9.24;100.00;99834.19;5090506;28;20316;-59
2022/04/26 08:08:24;;;;;;;5.93;5.33;;;;;;;9.20;100.00;99830.94;5091018;28;20270;-58
2022/04/26 08:10:49;;;;;;;5.77;5.27;;;;;;;9.10;100.00;99829.78;5072816;28;20232;-57
2022/04/26 08:13:15;;;;;;;5.80;5.30;;;;;;;9.00;100.00;99832.81;5085143;28;20540;-58
2022/04/26 08:15:40;;;;;;;6.43;5.83;;;;;;;8.89;100.00;99840.25;5073503;28;20176;-58
2022/04/26 08:18:06;;;;;;;7.37;6.00;;;;;;;8.96;100.00;99844.16;5071264;28;20662;-58
2022/04/26 08:20:32;;;;;;;5.43;4.87;;;;;;;8.86;100.00;99845.53;5070141;28;20234;-58
2022/04/26 08:22:58;;;;;;;5.60;5.10;;;;;;;8.82;100.00;99855.13;5070855;28;20187;-57
2022/04/26 08:28:07;;;;;;;5.80;5.10;;;;;;;8.93;100.00;99867.41;5086964;28;20257;-58
2022/04/26 08:30:33;;;;;;;5.60;5.10;;;;;;;8.92;100.00;99864.91;5067742;28;20235;-58
2022/04/26 08:32:59;;;;;;;5.30;4.80;;;;;;;8.98;100.00;99870.56;5077831;28;20184;-60
2022/04/26 08:35:26;;;;;;;6.23;5.60;;;;;;;9.02;100.00;99873.81;5074575;28;20258;-57
2022/04/26 08:37:53;;;;;;;6.03;5.43;;;;;;;9.01;100.00;99882.41;5087451;28;20638;-57
2022/04/26 08:40:18;;;;;;;5.67;5.17;;;;;;;9.05;100.00;99876.19;5079161;28;20238;-58
2022/04/26 08:42:46;;;;;;;6.27;5.67;;;;;;;9.27;100.00;99887.94;5086100;28;20181;-58
2022/04/26 08:45:16;;;;;;;5.40;4.40;;;;;;;9.30;100.00;99887.75;5087675;28;20634;-59
2022/04/26 08:53:15;;;;;;;4.70;4.30;;;;;;;10.07;100.00;99898.19;5087805;28;20348;-60
2022/04/26 08:55:42;;;;;;;5.33;4.83;;;;;;;10.43;100.00;99895.31;5088245;28;20203;-57
2022/04/26 08:58:11;;;;;;;6.83;4.60;;;;;;;10.59;100.00;99900.41;5090806;28;20207;-57
2022/04/26 09:00:38;;;;;;;4.90;4.50;;;;;;;10.55;100.00;99898.91;5083098;28;20250;-58
2022/04/26 09:03:04;;;;;;;4.50;4.10;;;;;;;10.80;100.00;99907.78;5090707;28;20179;-58
2022/04/26 09:05:31;;;;;;;5.37;4.90;;;;;;;11.05;100.00;99907.19;5108686;28;20219;-76
2022/04/26 09:07:58;;;;;;;4.97;4.47;;;;;;;10.96;100.00;99907.72;5093177;28;20702;-75
2022/04/26 09:10:24;;;;;;;4.30;3.90;;;;;;;10.89;100.00;99906.41;5081716;28;20357;-78
2022/04/26 09:13:08;;;;;;;4.87;4.47;;;;;;;11.20;100.00;99904.59;5072560;28;20636;-77
2022/04/26 09:15:42;;;;;;;4.60;4.13;;;;;;;11.41;100.00;99905.88;5089546;28;20521;-78
2022/04/26 09:18:15;;;;;;;4.70;4.23;;;;;;;10.98;100.00;99911.03;5091531;28;20203;-76
2022/04/26 09:20:41;;;;;;;3.83;3.53;;;;;;;11.03;100.00;99911.59;5083218;28;20235;-79
2022/04/26 09:23:15;;;;;;;4.13;3.73;;;;;;;11.00;100.00;99914.31;5083241;28;20264;-74
2022/04/26 09:25:41;;;;;;;4.13;3.67;;;;;;;10.71;100.00;99922.00;5078566;28;20190;-78
2022/04/26 09:28:07;;;;;;;4.17;3.70;;;;;;;10.78;100.00;99915.59;5091087;28;20184;-75
2022/04/26 09:30:33;;;;;;;3.80;3.23;;;;;;;10.56;100.00;99930.63;5080667;28;20232;-77
2022/04/26 09:32:58;;;;;;;3.77;3.47;;;;;;;9.98;100.00;99920.91;5091440;28;20309;-80
2022/04/26 09:35:29;;;;;;;4.50;3.53;;;;;;;9.65;100.00;99928.69;5090691;28;20267;-79
2022/04/26 09:37:54;;;;;;;3.13;2.90;;;;;;;9.47;100.00;99927.94;5090598;28;20172;-65
2022/04/26 09:40:20;;;;;;;3.37;3.07;;;;;;;8.98;100.00;99931.28;5078715;28;20306;-78
2022/04/26 09:42:48;;;;;;;3.40;3.10;;;;;;;9.00;100.00;99940.56;5076778;28;20183;-76
2022/04/26 09:45:15;;;;;;;3.60;3.30;;;;;;;8.80;100.00;99941.56;5085247;28;20177;-76
2022/04/26 09:47:41;;;;;;;3.40;3.10;;;;;;;8.91;100.00;99945.34;5089025;28;20807;-75
2022/04/26 09:50:12;;;;;;;3.83;3.53;;;;;;;8.93;100.00;99946.09;5073495;28;20660;-79
2022/04/26 09:52:38;;;;;;;3.90;3.60;;;;;;;8.93;100.00;99949.50;5089823;28;20547;-77
2022/04/26 09:55:08;;;;;;;3.63;3.33;;;;;;;8.98;100.00;99951.81;5107535;28;20229;-77
2022/04/26 09:57:34;;;;;;;3.43;3.00;;;;;;;8.95;100.00;99946.84;5093924;28;20285;-74
2022/04/26 10:00:03;;;;;;;3.73;3.43;;;;;;;8.84;100.00;99957.66;5082257;28;20195;-76
2022/04/26 10:02:34;;;;;;;4.10;3.73;;;;;;;8.75;100.00;99956.38;5064876;28;20348;-76
2022/04/26 10:05:03;;;;;;;4.60;4.20;;;;;;;8.74;100.00;99956.44;5076977;28;20196;-76
2022/04/26 10:07:35;;;;;;;4.90;4.50;;;;;;;9.05;100.00;99966.00;5080301;28;20569;-56
2022/04/26 10:10:03;;;;;;;3.40;3.10;;;;;;;8.91;100.00;99961.56;5093597;28;20227;-57
2022/04/26 10:12:30;;;;;;;3.07;2.50;;;;;;;8.76;100.00;99949.50;5083661;28;20212;-57
2022/04/26 10:14:57;;;;;;;4.97;2.27;;;;;;;8.74;100.00;99956.44;5090448;28;20268;-58
2022/04/26 10:17:22;;;;;;;2.73;2.40;;;;;;;8.70;100.00;99951.47;5089559;28;20177;-57
2022/04/26 10:19:48;;;;;;;2.43;2.23;;;;;;;8.79;100.00;99955.28;5084937;28;20186;-57
2022/04/26 10:22:17;;;;;;;2.17;2.07;;;;;;;8.76;100.00;99958.03;5079531;28;20239;-57
2022/04/26 10:25:09;;;;;;;1.83;1.70;;;;;;;8.81;100.00;99960.38;5099352;28;20175;-57
2022/04/26 10:27:34;;;;;;;2.97;2.63;;;;;;;8.82;100.00;99962.00;5078316;28;20183;-58
2022/04/26 10:29:59;;;;;;;2.20;2.00;;;;;;;8.82;100.00;99962.00;5083027;28;20188;-57
2022/04/26 10:32:43;;;;;;;2.50;2.30;;;;;;;8.76;100.00;99958.03;5082481;28;20271;-57
2022/04/26 10:35:23;;;;;;;2.57;2.37;;;;;;;8.82;100.00;99967.13;5082170;28;20263;-58
2022/04/26 10:38:06;;;;;;;2.57;2.37;;;;;;;8.82;100.00;99960.28;5073647;28;20171;-55
2022/04/26 10:41:04;;;;;;;2.80;2.30;;;;;;;8.83;100.00;99963.69;5067720;28;20231;-56
2022/04/26 10:43:29;;;;;;;1.90;1.80;;;;;;;8.93;100.00;99967.47;5081600;28;20237;-56
2022/04/26 10:46:20;;;;;;;1.90;1.80;;;;;;;9.08;100.00;99977.84;5094428;28;20175;-56
2022/04/26 10:48:46;;;;;;;1.63;1.53;;;;;;;9.04;100.00;99978.00;5107017;28;20270;-58
2022/04/26 10:51:36;;;;;;;1.93;1.83;;;;;;;8.95;100.00;99982.78;5065889;28;20632;-57
2022/04/26 10:54:05;;;;;;;2.07;1.97;;;;;;;8.79;100.00;99985.25;5077942;28;20184;-57
2022/04/26 10:56:31;;;;;;;2.07;1.70;;;;;;;8.90;100.00;99995.81;5084022;28;20176;-56
2022/04/26 10:58:57;;;;;;;2.03;1.87;;;;;;;9.25;100.00;99993.22;5073001;28;20220;-63
2022/04/26 11:01:24;;;;;;;1.77;1.63;;;;;;;9.42;100.00;99994.94;5062069;28;20216;-59
2022/04/26 11:03:54;;;;;;;1.60;1.50;;;;;;;9.48;100.00;99996.38;5066163;28;20185;-59
2022/04/26 11:06:42;;;;;;;1.80;1.70;;;;;;;9.48;100.00;99997.19;5088731;28;20200;-59
2022/04/26 11:09:15;;;;;;;1.80;1.70;;;;;;;9.64;100.00;100006.69;5075002;28;20193;-59
2022/04/26 11:11:50;;;;;;;1.87;1.70;;;;;;;10.00;100.00;100006.44;5069153;28;20248;-59
2022/04/26 11:14:17;;;;;;;2.03;1.83;;;;;;;10.14;100.00;100002.31;5085328;28;20175;-59
2022/04/26 11:16:59;;;;;;;2.03;1.93;;;;;;;10.36;100.00;100007.16;5085144;28;20693;-59
2022/04/26 11:19:29;;;;;;;2.73;1.77;;;;;;;10.55;100.00;100006.94;5090827;28;20259;-59
2022/04/26 11:21:55;;;;;;;2.80;1.70;;;;;;;10.58;99.15;100008.50;5080866;28;20246;-58
2022/04/26 11:29:53;;;;;;;1.80;1.70;;;;;;;10.94;98.59;100008.19;5087763;28;20260;-57
2022/04/26 11:32:38;;;;;;;1.80;1.70;;;;;;;10.54;100.00;100007.03;5041663;28;20576;-57
2022/04/26 11:35:04;;;;;;;3.67;1.87;;;;;;;10.90;99.99;100011.00;5082062;28;20275;-58
2022/04/26 11:37:30;;;;;;;1.60;1.50;;;;;;;10.88;99.79;100017.97;5096160;28;20173;-57
2022/04/26 11:39:57;;;;;;;1.60;1.50;;;;;;;10.89;98.66;100011.91;5079379;28;20604;-57
2022/04/26 11:42:24;;;;;;;2.47;1.90;;;;;;;11.12;96.93;100018.31;5077235;28;20610;-57
2022/04/26 11:45:19;;;;;;;1.50;1.40;;;;;;;11.00;95.06;100016.47;5088285;28;20252;-57
2022/04/26 11:47:49;;;;;;;1.40;1.30;;;;;;;11.22;95.11;100022.00;5027083;28;20296;-58
2022/04/26 11:50:21;;;;;;;1.77;1.50;;;;;;;11.42;92.75;100018.28;5020396;28;20289;-58
2022/04/26 11:52:49;;;;;;;1.43;1.33;;;;;;;12.22;88.93;100014.38;5028742;28;20266;-58
2022/04/26 11:55:30;;;;;;;1.70;1.60;;;;;;;12.58;88.04;100012.94;5027561;28;20222;-59
2022/04/26 11:58:13;;;;;;;1.50;1.40;;;;;;;12.58;82.66;100018.91;5012766;28;20197;-57
2022/04/26 12:00:50;;;;;;;1.50;1.40;;;;;;;12.46;87.16;100022.28;5003312;28;20226;-58
2022/04/26 12:03:17;;;;;;;1.63;1.37;;;;;;;12.73;88.59;100026.59;5020217;28;20182;-58
2022/04/26 12:05:43;;;;;;;1.30;1.27;;;;;;;12.65;85.45;100021.94;4999366;28;20218;-57
2022/04/26 12:08:10;;;;;;;1.60;1.50;;;;;;;12.42;86.69;100026.81;4999039;28;20201;-57
2022/04/26 12:10:36;;;;;;;2.07;1.60;;;;;;;12.65;88.96;100024.53;5000627;28;20237;-57
2022/04/26 12:13:05;;;;;;;1.77;1.67;;;;;;;13.20;84.27;100020.06;5014309;28;20682;-57
2022/04/26 12:15:34;;;;;;;2.70;1.67;;;;;;;14.06;82.60;100022.06;5010599;28;20265;-58
2022/04/26 12:18:03;;;;;;;1.40;1.30;;;;;;;13.87;79.90;100023.34;4995586;28;20200;-57
2022/04/26 12:20:29;;;;;;;1.50;1.40;;;;;;;13.73;76.98;100029.50;5016106;28;20708;-58
2022/04/26 12:22:54;;;;;;;1.43;1.33;;;;;;;13.61;81.09;100032.91;5005930;28;20182;-58
2022/04/26 12:25:20;;;;;;;1.80;1.37;;;;;;;13.61;81.01;100031.16;5091459;28;20192;-57
2022/04/26 12:28:01;;;;;;;2.00;1.50;;;;;;;13.31;76.81;100029.69;5091704;28;20168;-57
2022/04/26 12:30:29;;;;;;;1.60;1.50;;;;;;;12.68;78.22;100039.00;5096492;28;20432;-58
2022/04/26 12:32:55;;;;;;;1.80;1.70;;;;;;;12.16;80.09;100033.59;5094913;28;20190;-58
2022/04/26 12:35:21;;;;;;;1.70;1.57;;;;;;;11.91;86.38;100040.25;5092243;28;20267;-57
2022/04/26 12:37:47;;;;;;;1.70;1.60;;;;;;;11.92;88.44;100039.34;5107300;28;20188;-59
2022/04/26 12:40:15;;;;;;;2.50;1.90;;;;;;;11.77;85.06;100035.09;5068642;28;20539;-57
2022/04/26 12:42:42;;;;;;;1.70;1.60;;;;;;;11.53;88.26;100042.56;5090038;28;20175;-57
2022/04/26 12:45:25;;;;;;;2.00;1.90;;;;;;;11.29;93.41;100046.50;5107426;28;20207;-58
2022/04/26 12:50:53;;;;;;;2.30;2.10;;;;;;;10.56;100.00;100057.47;5080922;28;20323;-57
2022/04/26 12:53:24;;;;;;;2.47;2.20;;;;;;;10.76;100.00;100040.91;5080023;28;20187;-58
2022/04/26 12:56:10;;;;;;;3.07;2.10;;;;;;;10.60;98.44;100047.84;5091471;28;20581;-58
2022/04/26 12:58:42;;;;;;;2.10;1.90;;;;;;;10.68;97.88;100043.13;5090357;28;20179;-57
2022/04/26 13:01:08;;;;;;;2.03;1.93;;;;;;;10.25;99.25;100069.41;5074516;28;20229;-58
2022/04/26 13:03:35;;;;;;;3.53;1.73;;;;;;;9.89;98.71;100072.19;5082246;28;20179;-58
2022/04/26 13:06:18;;;;;;;1.40;1.30;;;;;;;9.32;99.03;100074.16;5089583;28;20204;-59
2022/04/26 13:08:48;;;;;;;1.53;1.43;;;;;;;8.77;100.00;100075.09;5089968;28;20172;-57
2022/04/26 13:11:17;;;;;;;1.27;1.17;;;;;;;8.61;100.00;100077.56;5083044;28;20241;-57
2022/04/26 13:13:46;;;;;;;1.63;1.50;;;;;;;8.40;100.00;100074.22;5080292;28;20177;-59
2022/04/26 13:16:12;;;;;;;1.90;1.80;;;;;;;8.40;100.00;100077.59;5076355;28;20188;-59
2022/04/26 13:18:38;;;;;;;1.67;1.57;;;;;;;8.38;100.00;100083.72;5078659;28;20173;-59
2022/04/26 13:21:05;;;;;;;2.90;1.80;;;;;;;8.40;100.00;100080.16;5054770;28;20702;-58
2022/04/26 13:23:33;;;;;;;2.67;1.67;;;;;;;8.44;100.00;100078.31;5061525;28;20192;-58
2022/04/26 13:25:59;;;;;;;2.30;1.70;;;;;;;8.45;100.00;100079.97;5071765;28;20255;-58
2022/04/26 13:28:25;;;;;;;2.07;1.40;;;;;;;8.54;100.00;100082.13;5075365;28;20591;-57
2022/04/26 13:30:50;;;;;;;2.10;1.90;;;;;;;8.62;100.00;100096.31;5064845;28;20677;-58
2022/04/26 13:33:15;;;;;;;2.13;1.93;;;;;;;8.68;100.00;100084.06;5074412;28;20627;-58
2022/04/26 13:35:41;;;;;;;1.73;1.63;;;;;;;8.61;100.00;100079.28;5075457;28;20287;-58
2022/04/26 13:38:11;;;;;;;4.17;2.57;;;;;;;8.68;100.00;100089.19;5074879;28;20631;-59
2022/04/26 13:40:37;;;;;;;1.77;1.67;;;;;;;8.93;100.00;100079.50;5079092;28;20671;-60
2022/04/26 13:43:04;;;;;;;2.10;1.90;;;;;;;9.08;100.00;100083.06;5061888;28;20535;-59
2022/04/26 13:45:32;;;;;;;1.90;1.80;;;;;;;9.39;100.00;100078.97;5090318;28;20196;-59
2022/04/26 13:47:57;;;;;;;2.43;1.93;;;;;;;9.29;100.00;100083.72;5074731;28;20184;-59
2022/04/26 13:50:23;;;;;;;1.93;1.83;;;;;;;9.14;98.00;100082.75;5064591;28;20340;-58
2022/04/26 13:52:48;;;;;;;2.23;2.03;;;;;;;9.32;99.76;100086.97;5059926;28;20713;-60
2022/04/26 13:55:17;;;;;;;1.93;1.83;;;;;;;9.53;98.73;100086.81;5073291;28;20398;-60
2022/04/26 13:57:43;;;;;;;2.10;1.90;;;;;;;9.39;100.00;100086.69;5073428;28;20660;-60
2022/04/26 14:00:11;;;;;;;1.80;1.70;;;;;;;9.74;99.34;100092.59;5079829;28;20635;-59
2022/04/26 14:02:37;;;;;;;2.03;1.92;;;;;;;9.90;98.85;100094.38;5073647;28;20969;-63
2022/04/26 14:05:04;;;;;;;2.00;1.80;;;;;;;9.88;96.56;100093.66;5073758;28;20237;-59
2022/04/26 14:07:29;;;;;;;2.22;2.03;;;;;;;10.34;93.24;100088.63;5073049;28;20421;-58
2022/04/26 14:09:54;;;;;;;2.07;1.80;;;;;;;10.15;93.83;100091.38;5073117;28;20234;-58
2022/04/26 14:12:20;;;;;;;1.80;1.70;;;;;;;10.30;94.95;100093.09;5062255;28;20220;-60
2022/04/26 14:22:56;;;;;;;1.80;1.70;;;;;;;10.91;92.70;100095.03;5094149;28;20229;-57
2022/04/26 14:25:22;;;;;;;1.90;1.80;;;;;;;10.53;94.87;100088.53;5094557;28;20176;-57
2022/04/26 14:27:49;;;;;;;2.33;2.13;;;;;;;10.59;97.45;100092.47;5094341;28;20179;-57
2022/04/26 14:30:15;;;;;;;2.63;2.20;;;;;;;10.62;98.78;100095.72;5083532;28;20208;-57
2022/04/26 14:32:41;;;;;;;2.63;2.43;;;;;;;10.58;99.95;100088.25;5093547;28;20233;-57
2022/04/26 14:35:07;;;;;;;2.60;2.40;;;;;;;10.40;100.00;100095.22;5094598;28;20234;-58
2022/04/26 14:37:35;;;;;;;3.27;2.57;;;;;;;10.09;100.00;100097.66;5108368;28;20187;-65
2022/04/26 14:40:00;;;;;;;2.80;2.60;;;;;;;9.88;100.00;100099.59;5096127;28;20190;-65
2022/04/26 14:42:28;;;;;;;2.90;2.70;;;;;;;9.94;100.00;100107.00;5080304;28;20792;-66
2022/04/26 14:44:53;;;;;;;3.37;2.93;;;;;;;9.88;100.00;100106.50;5080217;28;20216;-66
2022/04/26 14:47:19;;;;;;;3.70;2.93;;;;;;;9.84;100.00;100108.38;5093330;28;20190;-65
2022/04/26 14:49:44;;;;;;;3.20;3.00;;;;;;;9.89;100.00;100105.59;5089198;28;20255;-64
2022/04/26 14:52:14;;;;;;;5.30;3.67;;;;;;;9.77;100.00;100102.72;5080818;28;20220;-78
2022/04/26 14:54:40;;;;;;;5.17;3.30;;;;;;;9.78;100.00;100101.81;5090791;28;20226;-66
2022/04/26 14:57:05;;;;;;;3.60;3.30;;;;;;;9.73;100.00;100102.97;5076985;28;20169;-66
2022/04/26 14:59:32;;;;;;;3.80;3.40;;;;;;;9.76;100.00;100105.38;5074458;28;20215;-67
2022/04/26 15:01:58;;;;;;;3.77;3.47;;;;;;;9.73;100.00;100108.09;5057612;27;20270;-66
2022/04/26 15:04:23;;;;;;;3.67;3.37;;;;;;;9.40;100.00;100106.31;5075166;28;20265;-66
2022/04/26 15:06:49;;;;;;;4.43;4.03;;;;;;;9.60;100.00;100120.72;5074376;28;20195;-67
2022/04/26 15:17:29;;;;;;;5.03;4.00;;;;;;;9.22;100.00;100108.06;5072771;28;20408;-58
2022/04/26 15:19:55;;;;;;;4.50;4.10;;;;;;;9.24;100.00;100109.66;5093514;28;20254;-58
2022/04/26 15:22:21;;;;;;;4.97;4.17;;;;;;;9.29;100.00;100112.81;5081945;28;20224;-57
2022/04/26 15:24:48;;;;;;;4.73;3.93;;;;;;;8.81;100.00;100119.41;5092777;28;20240;-57
2022/04/26 15:27:18;;;;;;;5.47;4.23;;;;;;;8.47;100.00;100118.38;5091580;28;20635;-58
2022/04/26 15:29:44;;;;;;;4.37;3.93;;;;;;;8.29;100.00;100123.41;5074715;28;20288;-59
2022/04/26 15:32:09;;;;;;;5.40;4.67;;;;;;;8.09;100.00;100121.72;5059695;28;20263;-58
2022/04/26 15:34:35;;;;;;;5.60;5.10;;;;;;;8.00;100.00;100122.13;5093097;28;20258;-60
2022/04/26 15:37:01;;;;;;;7.27;5.63;;;;;;;8.09;100.00;100124.28;5093078;28;20256;-59
2022/04/26 15:39:26;;;;;;;6.10;5.50;;;;;;;8.38;100.00;100127.28;5093154;28;20203;-63